HappyWetter - St.Margarethen im Burgenland
Wetterdaten: aktuell Freitag, 10.07.2020 11:20
Datum Zeit Temp. A. Feuchte A. Luftdruck Regen Wind Richtung Richtung Sonnenschein ET Solar Taupunkt Windchill Windben Empfang
10.07.2020 11:20 32,4 C 48 % 1012,3 hPa 0,0 l/m 13,1 km/h (3 Bft) O 100 60 min 0,534 mm 795 W/m 19,9 C 32,3 C 16,1 km/h (3 Bft) 95,83 %
10.07.2020 10:20 29,4 C 57 % 1012,8 hPa 0,0 l/m 7,1 km/h (2 Bft) SO 146 60 min 0,406 mm 701 W/m 20,0 C 29,3 C 11,3 km/h (2 Bft) 100,00 %
10.07.2020 09:20 27,5 C 62 % 1013,0 hPa 0,0 l/m 6,6 km/h (2 Bft) O 92 60 min 0,279 mm 573 W/m 19,6 C 27,5 C 9,7 km/h (2 Bft) 100,00 %
10.07.2020 08:20 24,4 C 71 % 1013,1 hPa 0,0 l/m 2,1 km/h (1 Bft) NO 41 60 min 0,178 mm 422 W/m 18,8 C 24,4 C 3,2 km/h (1 Bft) 100,00 %
10.07.2020 07:20 20,1 C 86 % 1013,0 hPa 0,0 l/m 0,8 km/h (0 Bft) W 265 44 min 0,076 mm 265 W/m 17,7 C 20,1 C 1,6 km/h (1 Bft) 100,00 %
10.07.2020 06:19 16,6 C 89 % 1013,0 hPa 0,0 l/m 0,0 km/h (0 Bft) SO 135 0 min 0,000 mm 105 W/m 14,8 C 16,6 C 0,0 km/h (0 Bft) 100,00 %
10.07.2020 05:19 16,6 C 85 % 1013,1 hPa 0,0 l/m 0,2 km/h (0 Bft) SO 140 0 min 0,000 mm 9 W/m 14,1 C 16,6 C 1,6 km/h (1 Bft) 100,00 %
10.07.2020 04:18 17,7 C 82 % 1013,1 hPa 0,0 l/m 1,4 km/h (1 Bft) N-NW 346 0 min 0,001 mm 0 W/m 14,6 C 17,7 C 3,2 km/h (1 Bft) 96,00 %
10.07.2020 03:18 18,9 C 80 % 1013,2 hPa 0,0 l/m 0,4 km/h (0 Bft) N 349 0 min 0,025 mm 0 W/m 15,4 C 18,9 C 1,6 km/h (1 Bft) 100,00 %
10.07.2020 02:18 20,4 C 76 % 1013,3 hPa 0,0 l/m 1,3 km/h (1 Bft) NO 44 0 min 0,026 mm 0 W/m 16,0 C 20,4 C 3,2 km/h (1 Bft) 100,00 %
10.07.2020 01:18 21,1 C 71 % 1013,5 hPa 0,0 l/m 2,4 km/h (1 Bft) S 176 0 min 0,025 mm 0 W/m 15,6 C 21,1 C 4,8 km/h (1 Bft) 100,00 %
10.07.2020 00:17 22,1 C 68 % 1013,6 hPa 0,0 l/m 1,1 km/h (1 Bft) SW 232 0 min 0,000 mm 0 W/m 15,9 C 22,1 C 3,2 km/h (1 Bft) 100,00 %
09.07.2020 23:17 22,6 C 67 % 1013,4 hPa 0,0 l/m 2,5 km/h (1 Bft) NW 317 0 min 0,051 mm 0 W/m 16,2 C 22,6 C 3,2 km/h (1 Bft) 100,00 %
09.07.2020 22:17 23,9 C 64 % 1013,3 hPa 0,0 l/m 3,6 km/h (1 Bft) O-SO 119 0 min 0,051 mm 0 W/m 16,7 C 23,9 C 4,8 km/h (1 Bft) 96,30 %
09.07.2020 21:17 25,6 C 59 % 1013,2 hPa 0,0 l/m 5,7 km/h (1 Bft) O-SO 120 0 min 0,076 mm 0 W/m 17,0 C 25,6 C 8,0 km/h (2 Bft) 100,00 %
09.07.2020 20:16 28,0 C 52 % 1013,0 hPa 0,0 l/m 5,5 km/h (1 Bft) S-SO 155 8 min 0,203 mm 28 W/m 17,2 C 28,0 C 8,0 km/h (2 Bft) 100,00 %
09.07.2020 19:16 29,7 C 48 % 1013,2 hPa 0,0 l/m 12,2 km/h (2 Bft) S-SO 159 60 min 0,279 mm 190 W/m 17,5 C 29,2 C 19,3 km/h (3 Bft) 100,00 %
09.07.2020 18:16 29,3 C 49 % 1013,6 hPa 0,0 l/m 10,9 km/h (2 Bft) O-SO 109 39 min 0,229 mm 195 W/m 17,5 C 28,8 C 17,7 km/h (3 Bft) 100,00 %
09.07.2020 17:15 30,0 C 45 % 1013,7 hPa 0,0 l/m 9,8 km/h (2 Bft) SO 141 60 min 0,406 mm 172 W/m 16,7 C 29,7 C 16,1 km/h (3 Bft) 100,00 %
09.07.2020 16:15 31,5 C 44 % 1014,7 hPa 0,0 l/m 4,3 km/h (1 Bft) S-SO 163 60 min 0,559 mm 686 W/m 17,7 C 31,5 C 6,4 km/h (2 Bft) 100,00 %
09.07.2020 15:15 30,8 C 46 % 1015,1 hPa 0,0 l/m 10,7 km/h (2 Bft) O-SO 105 60 min 0,661 mm 745 W/m 17,8 C 30,5 C 17,7 km/h (3 Bft) 100,00 %
09.07.2020 14:15 30,5 C 46 % 1015,7 hPa 0,0 l/m 17,8 km/h (3 Bft) SO 134 60 min 0,685 mm 828 W/m 17,5 C 29,9 C 22,5 km/h (4 Bft) 100,00 %
09.07.2020 13:15 30,2 C 47 % 1016,3 hPa 0,0 l/m 14,4 km/h (3 Bft) SO 126 60 min 0,635 mm 747 W/m 17,6 C 29,6 C 20,9 km/h (4 Bft) 100,00 %
09.07.2020 12:15 28,7 C 53 % 1016,8 hPa 0,0 l/m 9,9 km/h (2 Bft) O-SO 112 15 min 0,610 mm 884 W/m 18,2 C 28,3 C 14,5 km/h (3 Bft) 100,00 %
09.07.2020 12:00 28,3 C 54 % 1016,8 hPa 0,0 l/m 11,0 km/h (2 Bft) SO 136 0 min 0,000 mm 835 W/m 18,1 C 27,7 C 17,7 km/h (3 Bft) 96,00 %
_ Min-Zeit 06:07 16:22 11:20 - 07:25 - - - - - 05:56 06:07 07:25 11:05
Minimum _ 16,3 C 43 % 1012,3 hPa - 0,0 km/h (0 Bft) - - - - - 14,0 C 16,3 C 0,0 km/h (0 Bft) 91,67 %
_ Max-Zeit 11:20 07:04 12:38 11:20 14:45 - - 06:38 14:01 12:26 10:36 11:20 14:45 11:19
Maximum _ 32,4 C 90 % 1016,8 hPa 0,0 l/m 23,8 km/h
O-SO (4 Bft)
- - 2 min 0,685 mm 1011 W/m 20,7 C 32,3 C 30,6 km/h
O-SO (5 Bft)
100,00 %
Durchschnitt _ 25,4 C 62 % 1014,0 hPa #0,0 l/m 6,5 km/h (2 Bft) SO - #4:44 h #1,575 mm 393 W/m 17,1 C 25,2 C 9,9 km/h (2 Bft) 99,14 %